SBMO/MCZ METAR and TAF weather

Enter ICAO airport designator
Station Type Date Time Source
SBMO METAR 2020/06/05 08:00 UTC NOAA

SBMO 050800Z 30002KT CAVOK 22/22 Q1016


Station Type Date Time Source
SBMO Decoded METAR 2020/06/05 08:00 UTC NOAA

Maceio Aeroporto , Brazil (SBMO) 09-31S 035-47W 115M
Jun 05, 2020 - 04:00 AM EDT / 2020.06.05 0800 UTC
Wind: from the WNW (300 degrees) at 2 MPH (2 KT):0
Visibility: greater than 7 mile(s):0
Temperature: 71 F (22 C)
Dew Point: 71 F (22 C)
Relative Humidity: 100%
Pressure (altimeter): 30.00 in. Hg (1016 hPa)
ob: SBMO 050800Z 30002KT CAVOK 22/22 Q1016
cycle: 8

Station Type Date Time Source
SBMO TAF 2020/06/05 06:12 UTC NOAA

TAF SBMO 050300Z 0506/0606 11009KT 9000 SCT025 TN24/0508Z TX32/0517Z PROB30
TEMPO 0508/0510 5000 BR BKN015
RMK PER

Example: see airport list